Time;durP1;ratioP1;P1;durP2;ratioP2;P2;SDS_P1;SDS_P2;PMS_P1;PMS_P2;Temp;Humidity;BMP_temperature;BMP_pressure;BME280_temperature;BME280_humidity;BME280_pressure;Samples;Min_cycle;Max_cycle;Signal;HPM_P1;HPM_P2
2022/05/17 00:02:20;;;;;;;23.25;10.55;;;15.20;99.90;;;;;;5083693;28;20130;-50
2022/05/17 00:04:47;;;;;;;21.55;10.40;;;15.10;99.90;;;;;;5068989;28;20571;-49
2022/05/17 00:07:14;;;;;;;18.80;10.27;;;15.10;99.90;;;;;;5071267;28;20060;-51
2022/05/17 00:09:40;;;;;;;17.88;10.20;;;15.00;99.90;;;;;;5068407;28;20082;-61
2022/05/17 00:12:07;;;;;;;18.70;9.55;;;14.90;99.90;;;;;;5072621;28;20044;-48
2022/05/17 00:14:34;;;;;;;18.02;9.05;;;14.80;99.90;;;;;;5076558;28;20496;-50
2022/05/17 00:17:01;;;;;;;24.50;11.10;;;14.80;99.90;;;;;;5070857;28;20048;-49
2022/05/17 00:19:29;;;;;;;20.10;9.73;;;14.80;99.90;;;;;;5085814;28;20055;-61
2022/05/17 00:21:55;;;;;;;21.13;10.27;;;14.70;99.90;;;;;;5079668;28;20131;-61
2022/05/17 00:24:24;;;;;;;18.92;11.05;;;14.60;99.90;;;;;;5086020;28;20056;-61
2022/05/17 00:26:52;;;;;;;20.27;10.27;;;14.60;99.90;;;;;;5068974;28;20060;-48
2022/05/17 00:29:18;;;;;;;20.75;11.77;;;14.60;99.90;;;;;;5086028;28;20374;-50
2022/05/17 00:31:44;;;;;;;21.42;11.65;;;14.50;99.90;;;;;;5071629;28;20835;-51
2022/05/17 00:34:10;;;;;;;20.02;11.48;;;14.50;99.90;;;;;;5068152;28;20078;-61
2022/05/17 00:36:37;;;;;;;20.50;12.30;;;14.50;99.90;;;;;;5086051;28;20133;-61
2022/05/17 00:39:03;;;;;;;18.70;12.35;;;14.50;99.90;;;;;;5054616;28;20460;-61
2022/05/17 00:41:29;;;;;;;23.08;12.13;;;14.40;99.90;;;;;;5061686;28;20833;-61
2022/05/17 00:46:47;;;;;;;20.13;11.25;;;14.40;99.90;;;;;;5085797;28;20064;-61
2022/05/17 00:49:21;;;;;;;21.05;11.43;;;14.30;99.90;;;;;;5069395;28;20063;-61
2022/05/17 00:51:47;;;;;;;22.13;13.25;;;14.30;99.90;;;;;;5062601;28;20052;-61
2022/05/17 00:54:17;;;;;;;15.52;11.38;;;14.20;99.90;;;;;;5067015;28;20052;-61
2022/05/17 00:56:54;;;;;;;23.40;11.52;;;14.20;99.90;;;;;;5077199;28;20055;-61
2022/05/17 00:59:20;;;;;;;18.80;12.07;;;14.20;99.90;;;;;;5070410;28;20563;-61
2022/05/17 01:01:47;;;;;;;23.02;12.23;;;14.20;99.90;;;;;;5085267;28;20052;-53
2022/05/17 01:04:17;;;;;;;18.17;12.07;;;14.20;99.90;;;;;;5079240;28;20090;-61
2022/05/17 01:06:48;;;;;;;22.92;12.18;;;14.30;99.90;;;;;;5075838;28;20044;-61
2022/05/17 01:09:15;;;;;;;28.07;14.53;;;14.20;99.90;;;;;;5068241;28;20576;-61
2022/05/17 01:11:41;;;;;;;22.48;13.07;;;14.20;99.90;;;;;;5084770;28;20308;-61
2022/05/17 01:16:54;;;;;;;20.60;13.15;;;14.30;99.90;;;;;;5084369;28;20925;-61
2022/05/17 01:19:20;;;;;;;21.20;12.38;;;14.30;99.90;;;;;;5068993;28;20055;-52
2022/05/17 01:21:46;;;;;;;24.40;12.63;;;14.20;99.90;;;;;;5084861;28;20051;-61
2022/05/17 01:24:12;;;;;;;21.90;12.43;;;14.20;99.90;;;;;;5049637;28;20048;-47
2022/05/17 01:26:43;;;;;;;19.33;12.70;;;14.30;99.90;;;;;;5066346;28;20504;-53
2022/05/17 01:29:11;;;;;;;24.23;12.15;;;14.30;99.90;;;;;;5084667;28;20066;-61
2022/05/17 01:31:38;;;;;;;19.88;10.80;;;14.30;99.90;;;;;;5084368;28;20055;-61
2022/05/17 01:34:12;;;;;;;21.45;11.82;;;14.20;99.90;;;;;;5063124;28;20767;-61
2022/05/17 01:36:40;;;;;;;20.20;11.27;;;14.20;99.90;;;;;;5082411;28;20119;-61
2022/05/17 01:39:06;;;;;;;16.80;11.57;;;14.20;99.90;;;;;;5084793;28;20044;-61
2022/05/17 01:41:33;;;;;;;16.63;11.15;;;14.20;99.90;;;;;;5071679;28;20063;-61
2022/05/17 01:43:59;;;;;;;23.95;12.07;;;14.20;99.90;;;;;;5085029;28;20056;-60
2022/05/17 01:46:26;;;;;;;21.42;11.05;;;14.20;99.90;;;;;;5066503;28;20069;-61
2022/05/17 01:48:52;;;;;;;18.40;11.38;;;14.10;99.90;;;;;;5066799;28;20127;-60
2022/05/17 01:51:20;;;;;;;19.05;11.30;;;14.10;99.90;;;;;;5066612;28;20048;-52
2022/05/17 01:53:47;;;;;;;27.88;12.07;;;14.10;99.90;;;;;;5084487;28;20179;-60
2022/05/17 01:56:14;;;;;;;20.00;11.20;;;14.10;99.90;;;;;;5075100;28;20055;-60
2022/05/17 01:58:40;;;;;;;23.00;11.27;;;14.10;99.90;;;;;;5084408;28;20036;-61
2022/05/17 02:01:08;;;;;;;18.77;12.35;;;14.00;99.90;;;;;;5078389;28;20562;-61
2022/05/17 02:03:34;;;;;;;18.45;11.98;;;14.00;99.90;;;;;;5065944;28;20052;-61
2022/05/17 02:06:02;;;;;;;16.95;11.50;;;14.00;99.90;;;;;;5077190;28;20051;-60
2022/05/17 02:08:29;;;;;;;29.08;12.77;;;14.00;99.90;;;;;;5084128;28;20036;-61
2022/05/17 02:10:56;;;;;;;21.50;12.13;;;14.00;99.90;;;;;;5084411;28;20076;-61
2022/05/17 02:13:22;;;;;;;20.92;11.63;;;14.00;99.90;;;;;;5084351;28;20055;-52
2022/05/17 02:15:48;;;;;;;20.52;11.73;;;13.90;99.90;;;;;;5065971;28;20062;-53
2022/05/17 02:18:14;;;;;;;19.33;11.70;;;13.90;99.90;;;;;;5083436;28;20054;-49
2022/05/17 02:20:40;;;;;;;18.83;11.07;;;13.90;99.90;;;;;;5084173;28;20540;-49
2022/05/17 02:23:07;;;;;;;25.85;12.93;;;13.90;99.90;;;;;;5084730;28;20102;-62
2022/05/17 02:25:36;;;;;;;21.88;12.48;;;13.80;99.90;;;;;;5068705;28;20063;-62
2022/05/17 02:28:10;;;;;;;24.00;11.88;;;13.80;99.90;;;;;;5065822;28;20130;-53
2022/05/17 02:30:38;;;;;;;17.30;11.63;;;13.80;99.90;;;;;;5076694;28;20198;-50
2022/05/17 02:33:06;;;;;;;25.77;11.95;;;13.70;99.90;;;;;;5066898;28;20087;-54
2022/05/17 02:35:32;;;;;;;20.02;11.07;;;13.70;99.90;;;;;;5084771;28;20056;-54
2022/05/17 02:37:58;;;;;;;18.15;11.20;;;13.70;99.90;;;;;;5083420;28;20091;-53
2022/05/17 02:40:24;;;;;;;22.42;11.48;;;13.60;99.90;;;;;;5073634;28;20153;-50
2022/05/17 02:42:50;;;;;;;17.95;10.48;;;13.60;99.90;;;;;;5084678;28;20048;-61
2022/05/17 02:45:16;;;;;;;22.13;11.88;;;13.50;99.90;;;;;;5075811;28;20055;-61
2022/05/17 02:47:43;;;;;;;23.42;11.85;;;13.50;99.90;;;;;;5089618;28;20048;-61
2022/05/17 02:50:10;;;;;;;20.52;12.27;;;13.40;99.90;;;;;;5088549;28;20567;-50
2022/05/17 02:52:37;;;;;;;20.77;11.82;;;13.40;99.90;;;;;;5089020;28;20105;-53
2022/05/17 02:55:05;;;;;;;24.63;13.02;;;13.40;99.90;;;;;;5072307;28;20831;-53
2022/05/17 02:57:32;;;;;;;23.00;11.95;;;13.40;99.90;;;;;;5087560;28;20182;-49
2022/05/17 02:59:58;;;;;;;21.83;11.55;;;13.40;99.90;;;;;;5066736;28;20450;-51
2022/05/17 03:02:26;;;;;;;24.02;12.63;;;13.40;99.90;;;;;;5088542;28;20051;-49
2022/05/17 03:04:52;;;;;;;21.35;11.70;;;13.40;99.90;;;;;;5088474;28;20052;-61
2022/05/17 03:07:19;;;;;;;26.02;12.35;;;13.40;99.90;;;;;;5088057;28;20070;-61
2022/05/17 03:09:45;;;;;;;23.98;12.98;;;13.40;99.90;;;;;;5069765;28;20052;-53
2022/05/17 03:12:11;;;;;;;23.17;11.90;;;13.40;99.90;;;;;;5053931;28;20044;-52
2022/05/17 03:14:37;;;;;;;26.17;12.30;;;13.40;99.90;;;;;;5069867;28;20048;-53
2022/05/17 03:17:15;;;;;;;22.48;13.48;;;13.30;99.90;;;;;;5068466;28;20060;-49
2022/05/17 03:19:42;;;;;;;22.08;12.98;;;13.30;99.90;;;;;;5074945;28;20427;-61
2022/05/17 03:22:09;;;;;;;26.02;12.48;;;13.20;99.90;;;;;;5055257;28;20074;-60
2022/05/17 03:24:36;;;;;;;25.63;13.65;;;13.20;99.90;;;;;;5070044;28;20497;-49
2022/05/17 03:27:02;;;;;;;22.48;12.73;;;13.20;99.90;;;;;;5088527;28;20556;-50
2022/05/17 03:29:28;;;;;;;24.02;12.93;;;13.20;99.90;;;;;;5088827;28;20095;-61
2022/05/17 03:31:55;;;;;;;25.40;14.00;;;13.10;99.90;;;;;;5075662;28;20059;-61
2022/05/17 03:34:21;;;;;;;22.13;13.38;;;13.10;99.90;;;;;;5088898;28;20063;-61
2022/05/17 03:36:47;;;;;;;22.23;13.18;;;13.00;99.90;;;;;;5088246;28;20056;-61
2022/05/17 03:39:14;;;;;;;20.80;12.85;;;13.00;99.90;;;;;;5088738;28;20055;-62
2022/05/17 03:41:40;;;;;;;23.58;13.38;;;13.00;99.90;;;;;;5062602;28;20512;-49
2022/05/17 03:44:06;;;;;;;25.02;13.93;;;12.90;99.90;;;;;;5070721;28;20127;-47
2022/05/17 03:46:32;;;;;;;19.80;13.60;;;12.90;99.90;;;;;;5088953;28;20809;-50
2022/05/17 03:49:00;;;;;;;23.10;13.23;;;12.90;99.90;;;;;;5070461;28;20846;-53
2022/05/17 03:51:27;;;;;;;23.58;13.52;;;12.90;99.90;;;;;;5087920;28;20040;-53
2022/05/17 03:53:53;;;;;;;25.23;14.75;;;12.90;99.90;;;;;;5086986;28;20062;-61
2022/05/17 03:56:20;;;;;;;21.92;13.18;;;12.90;99.90;;;;;;5083575;28;20748;-48
2022/05/17 03:58:46;;;;;;;25.65;14.13;;;12.90;99.90;;;;;;5052364;28;20054;-48
2022/05/17 04:01:15;;;;;;;21.65;14.75;;;13.00;99.90;;;;;;5088198;28;20472;-47
2022/05/17 04:03:43;;;;;;;22.38;14.70;;;13.00;99.90;;;;;;5086420;28;20098;-61
2022/05/17 04:06:09;;;;;;;24.58;14.52;;;13.10;99.90;;;;;;5055789;28;20123;-61
2022/05/17 04:08:36;;;;;;;28.75;15.38;;;13.20;99.90;;;;;;5086330;28;20956;-61
2022/05/17 04:11:04;;;;;;;28.75;14.70;;;13.20;99.90;;;;;;5086553;28;20123;-61
2022/05/17 04:13:31;;;;;;;24.15;14.88;;;13.30;99.90;;;;;;5087497;28;20032;-49
2022/05/17 04:15:59;;;;;;;24.42;15.32;;;13.40;99.90;;;;;;5068914;28;20056;-52
2022/05/17 04:18:26;;;;;;;23.95;14.73;;;13.40;99.90;;;;;;5087730;28;20052;-52
2022/05/17 04:20:58;;;;;;;20.58;13.60;;;13.50;99.90;;;;;;5087147;28;20109;-48
2022/05/17 04:23:24;;;;;;;22.73;13.93;;;13.60;99.90;;;;;;5087004;28;20105;-51
2022/05/17 04:25:51;;;;;;;19.40;12.45;;;13.70;99.90;;;;;;5064810;28;20492;-49
2022/05/17 04:28:17;;;;;;;19.92;14.25;;;13.70;99.90;;;;;;5053987;28;20051;-61
2022/05/17 04:30:44;;;;;;;20.20;13.52;;;13.80;99.90;;;;;;5069346;28;20052;-61
2022/05/17 04:33:11;;;;;;;22.60;13.00;;;13.80;99.90;;;;;;5052998;28;20060;-61
2022/05/17 04:35:40;;;;;;;22.45;12.82;;;13.80;99.90;;;;;;5023167;28;20059;-61
2022/05/17 04:38:07;;;;;;;25.88;13.57;;;13.90;99.90;;;;;;5072225;28;20051;-61
2022/05/17 04:40:34;;;;;;;21.80;13.35;;;14.00;99.90;;;;;;5068875;28;21027;-49
2022/05/17 04:43:00;;;;;;;22.42;13.45;;;14.00;99.90;;;;;;5086335;28;20043;-51
2022/05/17 04:45:26;;;;;;;20.48;12.32;;;14.10;99.90;;;;;;5086957;28;20083;-50
2022/05/17 04:47:53;;;;;;;22.92;12.48;;;14.10;99.90;;;;;;5087014;28;20047;-54
2022/05/17 04:50:19;;;;;;;20.20;12.10;;;14.20;99.90;;;;;;5085694;28;20051;-54
2022/05/17 04:52:47;;;;;;;18.92;11.60;;;14.20;99.90;;;;;;5086488;28;20047;-52
2022/05/17 04:55:15;;;;;;;23.08;11.90;;;14.20;99.90;;;;;;5035692;28;20055;-52
2022/05/17 04:57:41;;;;;;;16.95;11.52;;;14.20;99.90;;;;;;5068151;28;20583;-49
2022/05/17 05:00:15;;;;;;;19.75;11.82;;;14.20;99.90;;;;;;5085511;28;20051;-49
2022/05/17 05:02:41;;;;;;;18.02;11.48;;;14.20;99.90;;;;;;5073217;28;20128;-52
2022/05/17 05:05:07;;;;;;;20.92;10.77;;;14.30;99.90;;;;;;5084583;28;20576;-61
2022/05/17 05:07:33;;;;;;;16.38;11.05;;;14.50;99.90;;;;;;5085070;28;20043;-61
2022/05/17 05:10:00;;;;;;;19.02;10.95;;;14.80;99.90;;;;;;5070577;28;20418;-60
2022/05/17 05:12:26;;;;;;;19.15;11.15;;;15.20;99.90;;;;;;5067845;28;20047;-61
2022/05/17 05:14:52;;;;;;;16.63;9.85;;;15.40;99.90;;;;;;5052834;28;20460;-51
2022/05/17 05:17:18;;;;;;;16.92;9.52;;;15.50;99.90;;;;;;5085478;28;20052;-49
2022/05/17 05:19:44;;;;;;;17.17;10.32;;;15.70;99.90;;;;;;5083808;28;20748;-52
2022/05/17 05:22:10;;;;;;;15.38;9.50;;;15.80;99.90;;;;;;5064805;28;20055;-47
2022/05/17 05:24:36;;;;;;;17.23;9.90;;;15.80;99.90;;;;;;5034231;28;20497;-48
2022/05/17 05:27:02;;;;;;;17.15;9.75;;;15.80;99.90;;;;;;5072352;28;20542;-51
2022/05/17 05:29:28;;;;;;;17.33;10.50;;;15.90;99.90;;;;;;5085990;28;20056;-52
2022/05/17 05:31:55;;;;;;;17.45;9.85;;;15.90;99.90;;;;;;5085809;28;20463;-50
2022/05/17 05:34:21;;;;;;;15.38;9.20;;;16.00;99.90;;;;;;5068629;28;20846;-51
2022/05/17 05:36:48;;;;;;;18.98;9.60;;;16.10;99.90;;;;;;5078242;28;20530;-47
2022/05/17 05:39:15;;;;;;;14.60;8.60;;;16.20;99.90;;;;;;5082519;28;20040;-48
2022/05/17 05:41:42;;;;;;;17.73;9.02;;;16.40;99.90;;;;;;5071178;28;20102;-47
2022/05/17 05:44:08;;;;;;;13.45;7.78;;;16.70;99.90;;;;;;5066036;28;20063;-48
2022/05/17 05:46:34;;;;;;;14.75;9.07;;;16.80;99.90;;;;;;5069982;28;20052;-52
2022/05/17 05:49:00;;;;;;;14.15;8.15;;;17.10;99.90;;;;;;5083801;28;20048;-61
2022/05/17 05:51:26;;;;;;;18.05;8.25;;;17.10;99.90;;;;;;5106036;28;20399;-61
2022/05/17 05:53:53;;;;;;;15.82;7.55;;;17.10;99.90;;;;;;5070998;28;20575;-61
2022/05/17 05:56:19;;;;;;;12.10;7.15;;;17.00;99.90;;;;;;5065060;28;20544;-60
2022/05/17 05:58:45;;;;;;;14.43;7.60;;;16.90;99.90;;;;;;5064935;28;20749;-61
2022/05/17 06:01:12;;;;;;;18.90;7.38;;;16.90;99.90;;;;;;5082834;28;20139;-58
2022/05/17 06:03:38;;;;;;;14.88;8.18;;;16.80;99.90;;;;;;5085066;28;20063;-59
2022/05/17 06:06:08;;;;;;;13.88;7.55;;;16.80;99.90;;;;;;5049884;28;20048;-60
2022/05/17 06:08:34;;;;;;;16.10;7.63;;;16.70;99.90;;;;;;5084792;28;20059;-60
2022/05/17 06:11:02;;;;;;;12.10;7.20;;;16.70;99.90;;;;;;5033533;28;20575;-59
2022/05/17 06:13:30;;;;;;;14.38;7.90;;;16.80;99.90;;;;;;5050109;28;20044;-59
2022/05/17 06:15:56;;;;;;;16.05;7.65;;;16.90;99.90;;;;;;5066993;28;20052;-60
2022/05/17 06:18:22;;;;;;;22.80;7.88;;;17.00;99.90;;;;;;5066403;28;20186;-60
2022/05/17 06:20:54;;;;;;;13.57;7.18;;;16.90;99.90;;;;;;5069966;28;20052;-61
2022/05/17 06:23:21;;;;;;;18.38;7.50;;;17.20;99.90;;;;;;5067233;28;20039;-58
2022/05/17 06:25:48;;;;;;;15.60;7.10;;;17.30;99.90;;;;;;5085433;28;20131;-59
2022/05/17 06:28:14;;;;;;;14.95;7.78;;;17.50;99.90;;;;;;5084098;28;20699;-60
2022/05/17 06:30:43;;;;;;;12.38;6.90;;;17.60;99.90;;;;;;5076645;28;20087;-60
2022/05/17 06:33:11;;;;;;;15.13;7.20;;;17.90;99.90;;;;;;5067316;28;20080;-60
2022/05/17 06:35:38;;;;;;;12.38;6.25;;;18.10;99.90;;;;;;5079292;28;20159;-60
2022/05/17 06:38:05;;;;;;;14.40;5.85;;;18.10;99.90;;;;;;5084998;28;20051;-60
2022/05/17 06:40:32;;;;;;;13.52;7.20;;;18.10;99.90;;;;;;5085460;28;20044;-59
2022/05/17 06:42:59;;;;;;;13.23;5.82;;;18.20;99.90;;;;;;5084563;28;20132;-60
2022/05/17 06:45:26;;;;;;;10.82;6.65;;;18.40;99.90;;;;;;5050404;28;20151;-60
2022/05/17 06:47:52;;;;;;;12.45;6.13;;;18.70;99.90;;;;;;5066875;28;20060;-59
2022/05/17 06:50:18;;;;;;;12.27;5.97;;;18.90;99.90;;;;;;5084376;28;20063;-60
2022/05/17 06:52:44;;;;;;;12.80;6.00;;;18.90;99.90;;;;;;5033084;28;20048;-60
2022/05/17 06:55:11;;;;;;;15.98;5.85;;;19.20;99.90;;;;;;5083553;28;20058;-60
2022/05/17 06:57:40;;;;;;;14.90;6.65;;;19.50;99.90;;;;;;5066091;28;20054;-60
2022/05/17 07:00:12;;;;;;;12.85;4.85;;;19.50;99.90;;;;;;5066846;28;20421;-60
2022/05/17 07:02:39;;;;;;;14.63;5.85;;;19.60;99.90;;;;;;5085044;28;20130;-60
2022/05/17 07:05:06;;;;;;;11.02;5.18;;;19.70;99.90;;;;;;5067059;28;20040;-60
2022/05/17 07:07:32;;;;;;;13.27;5.45;;;19.70;99.90;;;;;;5049987;28;20714;-60
2022/05/17 07:15:28;;;;;;;11.20;4.82;;;19.90;99.90;;;;;;5068698;28;20052;-48
2022/05/17 07:17:54;;;;;;;12.02;5.50;;;20.10;99.90;;;;;;5016621;28;20047;-51
2022/05/17 07:20:20;;;;;;;10.13;4.90;;;20.20;99.90;;;;;;5050065;28;20054;-51
2022/05/17 07:22:46;;;;;;;9.90;4.75;;;20.20;99.90;;;;;;5084754;28;20040;-46
2022/05/17 07:25:12;;;;;;;12.10;5.22;;;20.50;99.90;;;;;;5066794;28;20080;-50
2022/05/17 07:27:38;;;;;;;12.85;5.43;;;20.40;99.90;;;;;;5061022;28;20050;-50
2022/05/17 07:30:05;;;;;;;13.05;5.38;;;20.60;99.90;;;;;;5052475;28;20126;-53
2022/05/17 07:32:31;;;;;;;14.07;6.38;;;20.90;99.90;;;;;;5053962;28;20055;-52
2022/05/17 07:34:57;;;;;;;12.43;5.20;;;20.90;99.90;;;;;;5070310;28;20044;-52
2022/05/17 07:37:23;;;;;;;14.57;4.82;;;21.00;99.90;;;;;;5088534;28;20151;-52
2022/05/17 07:39:50;;;;;;;10.02;4.82;;;20.70;99.90;;;;;;5070113;28;20063;-48
2022/05/17 07:42:16;;;;;;;7.95;4.40;;;20.70;99.90;;;;;;5088667;28;20589;-46
2022/05/17 07:44:42;;;;;;;12.32;5.18;;;20.80;99.90;;;;;;5070650;28;20396;-48
2022/05/17 07:47:11;;;;;;;11.93;4.63;;;21.10;99.90;;;;;;5070187;28;20504;-50
2022/05/17 07:49:39;;;;;;;13.23;5.07;;;21.50;99.90;;;;;;5054646;28;20060;-48
2022/05/17 07:52:06;;;;;;;8.40;4.07;;;21.30;99.90;;;;;;5088406;28;20131;-47
2022/05/17 07:54:37;;;;;;;9.77;4.40;;;21.60;99.90;;;;;;5088210;28;20387;-59
2022/05/17 07:57:05;;;;;;;10.60;4.45;;;21.80;99.90;;;;;;5069514;28;20048;-59
2022/05/17 07:59:31;;;;;;;13.98;5.50;;;21.70;99.90;;;;;;5088336;28;20470;-59
2022/05/17 08:01:57;;;;;;;10.50;5.55;;;22.10;99.90;;;;;;5069154;28;20078;-59
2022/05/17 08:04:23;;;;;;;12.95;5.30;;;22.10;99.90;;;;;;5087897;28;20048;-59
2022/05/17 08:06:50;;;;;;;13.15;4.88;;;22.10;99.90;;;;;;5069350;28;20056;-59
2022/05/17 08:09:17;;;;;;;9.02;4.22;;;22.20;99.90;;;;;;5053615;28;20481;-59
2022/05/17 08:11:44;;;;;;;10.80;3.75;;;22.20;99.90;;;;;;5088068;28;20536;-47
2022/05/17 08:14:10;;;;;;;9.18;4.00;;;22.00;99.90;;;;;;5069982;28;20513;-47
2022/05/17 08:16:38;;;;;;;13.95;5.38;;;22.00;99.90;;;;;;5087515;28;20063;-51
2022/05/17 08:19:04;;;;;;;13.25;4.18;;;22.40;99.90;;;;;;5053588;28;20412;-49
2022/05/17 08:21:30;;;;;;;9.75;4.22;;;22.50;99.90;;;;;;5069506;28;20157;-49
2022/05/17 08:23:56;;;;;;;10.68;4.63;;;22.70;99.90;;;;;;5052338;28;20051;-59
2022/05/17 08:29:06;;;;;;;11.63;3.72;;;23.40;99.90;;;;;;5086730;28;20061;-59
2022/05/17 08:31:32;;;;;;;8.25;3.30;;;23.50;99.90;;;;;;5086346;28;20511;-59
2022/05/17 08:33:59;;;;;;;8.45;3.47;;;23.50;99.90;;;;;;5069208;28;20497;-57
2022/05/17 08:36:25;;;;;;;8.93;3.30;;;23.60;99.90;;;;;;5087102;28;20687;-59
2022/05/17 08:38:51;;;;;;;12.65;3.25;;;23.80;99.90;;;;;;5068063;28;20137;-59
2022/05/17 08:41:38;;;;;;;9.52;2.75;;;23.70;99.90;;;;;;5085919;28;20172;-59
2022/05/17 08:44:12;;;;;;;13.55;4.15;;;24.00;99.90;;;;;;5068550;28;20135;-59
2022/05/17 08:47:11;;;;;;;8.02;2.97;;;24.00;99.90;;;;;;5068545;28;20054;-59
2022/05/17 08:49:55;;;;;;;9.02;3.08;;;24.20;99.90;;;;;;5067987;28;20044;-60
2022/05/17 08:52:24;;;;;;;9.50;2.72;;;24.40;99.90;;;;;;5067842;28;20548;-59
2022/05/17 08:54:59;;;;;;;9.82;2.83;;;24.70;99.90;;;;;;5067750;28;20051;-59
2022/05/17 08:57:42;;;;;;;8.93;2.72;;;24.70;99.90;;;;;;5067678;28;20051;-59
2022/05/17 09:00:20;;;;;;;6.45;2.22;;;24.80;99.90;;;;;;5086019;28;20044;-59
2022/05/17 09:02:59;;;;;;;8.20;2.35;;;24.80;99.20;;;;;;5086659;28;20048;-62
2022/05/17 09:05:28;;;;;;;7.90;2.55;;;24.70;99.90;;;;;;5051393;28;20052;-59
2022/05/17 09:08:14;;;;;;;7.05;2.53;;;25.00;99.90;;;;;;5067721;28;20048;-59
2022/05/17 09:10:49;;;;;;;9.75;2.38;;;25.10;99.90;;;;;;5050790;28;20134;-59
2022/05/17 09:13:35;;;;;;;9.40;2.53;;;25.00;97.30;;;;;;5068070;28;20048;-59
2022/05/17 09:16:01;;;;;;;9.63;2.80;;;25.50;99.90;;;;;;5034145;28;20056;-59
2022/05/17 09:18:30;;;;;;;9.38;3.05;;;25.50;99.90;;;;;;5085622;28;20051;-59
2022/05/17 09:20:56;;;;;;;8.68;2.67;;;25.50;98.10;;;;;;5085808;28;20702;-60
2022/05/17 09:23:22;;;;;;;7.35;1.98;;;25.50;98.20;;;;;;5067154;28;20049;-59
2022/05/17 09:26:06;;;;;;;7.68;2.30;;;25.60;97.40;;;;;;5050776;28;20079;-59
2022/05/17 09:28:46;;;;;;;6.80;1.55;;;25.80;94.00;;;;;;5067464;28;20504;-59
2022/05/17 09:31:17;;;;;;;8.88;2.78;;;25.90;79.80;;;;;;5085562;28;20059;-59
2022/05/17 09:33:44;;;;;;;8.27;2.63;;;26.20;90.50;;;;;;5085601;28;20048;-49
2022/05/17 09:36:19;;;;;;;7.40;3.30;;;26.60;91.70;;;;;;5086423;28;20048;-49
2022/05/17 09:38:48;;;;;;;8.55;3.95;;;27.00;86.20;;;;;;5069016;28;20090;-48
2022/05/17 09:41:19;;;;;;;37.72;34.17;;;26.90;81.00;;;;;;5052877;28;20043;-51
2022/05/17 09:43:59;;;;;;;8.50;4.53;;;27.00;73.60;;;;;;5085325;28;20091;-51
2022/05/17 09:46:41;;;;;;;11.25;5.22;;;26.70;63.90;;;;;;5059378;28;20044;-51
2022/05/17 09:52:34;;;;;;;8.38;2.83;;;27.00;63.60;;;;;;5063134;28;20052;-51
2022/05/17 09:55:15;;;;;;;17.77;13.88;;;26.80;58.00;;;;;;5052834;28;20540;-48
2022/05/17 09:57:52;;;;;;;8.90;4.68;;;27.50;55.50;;;;;;5085892;28;20155;-58
2022/05/17 10:00:30;;;;;;;8.63;3.55;;;27.70;53.30;;;;;;5067316;28;20054;-59
2022/05/17 10:03:00;;;;;;;8.52;2.20;;;27.80;52.40;;;;;;5085028;28;20051;-59
2022/05/17 10:05:40;;;;;;;6.95;2.10;;;27.40;54.40;;;;;;5066829;28;20101;-59
2022/05/17 10:08:12;;;;;;;7.72;2.22;;;27.30;53.40;;;;;;5049992;28;20181;-58
2022/05/17 10:10:42;;;;;;;6.25;1.70;;;27.50;51.10;;;;;;5066840;28;20106;-58
2022/05/17 10:13:32;;;;;;;7.13;3.23;;;27.60;52.40;;;;;;5085557;28;20101;-59
2022/05/17 10:16:05;;;;;;;7.13;1.67;;;27.40;50.70;;;;;;5084747;28;20328;-51
2022/05/17 10:18:44;;;;;;;8.80;2.55;;;27.30;52.10;;;;;;5067435;28;20122;-51
2022/05/17 10:21:21;;;;;;;5.47;1.83;;;27.10;51.00;;;;;;5067319;28;20133;-58
2022/05/17 10:24:04;;;;;;;8.10;2.03;;;27.40;51.00;;;;;;5065027;28;20044;-58
2022/05/17 10:26:38;;;;;;;7.03;2.03;;;27.30;52.80;;;;;;5049378;28;20042;-58
2022/05/17 10:29:11;;;;;;;9.35;2.15;;;26.70;51.90;;;;;;5085154;28;20794;-57
2022/05/17 10:31:56;;;;;;;6.40;1.92;;;26.40;52.50;;;;;;5067426;28;20127;-57
2022/05/17 10:34:41;;;;;;;7.88;2.20;;;26.50;54.80;;;;;;5067251;28;20586;-50
2022/05/17 10:37:18;;;;;;;10.70;6.05;;;26.20;56.40;;;;;;5085158;28;20367;-51
2022/05/17 10:40:08;;;;;;;7.45;1.83;;;25.80;54.60;;;;;;5066256;28;20047;-51
2022/05/17 10:42:36;;;;;;;7.35;2.50;;;25.50;57.80;;;;;;5066585;28;20048;-52
2022/05/17 10:45:03;;;;;;;8.50;3.17;;;25.30;60.00;;;;;;5085497;28;20071;-52
2022/05/17 10:48:21;;;;;;;14.63;8.95;;;25.10;64.80;;;;;;5050334;28;20051;-51
2022/05/17 10:50:50;;;;;;;11.10;6.78;;;25.00;71.60;;;;;;5063114;28;20104;-49
2022/05/17 10:53:57;;;;;;;8.07;3.22;;;24.80;81.10;;;;;;5066860;28;20489;-59
2022/05/17 10:57:01;;;;;;;8.43;3.15;;;25.10;75.90;;;;;;5084691;28;20059;-57
2022/05/17 10:59:33;;;;;;;17.15;12.45;;;25.30;75.50;;;;;;5081139;28;20092;-56
2022/05/17 11:02:37;;;;;;;12.63;4.50;;;25.70;70.30;;;;;;5059646;28;20546;-57
2022/05/17 11:05:36;;;;;;;11.90;4.35;;;25.50;97.50;;;;;;5087037;28;20074;-57
2022/05/17 11:08:17;;;;;;;12.88;4.15;;;25.50;98.90;;;;;;5047971;28;20032;-58
2022/05/17 11:11:18;;;;;;;14.25;4.55;;;26.30;95.60;;;;;;5084335;28;20502;-57
2022/05/17 11:13:51;;;;;;;11.20;5.15;;;26.40;95.70;;;;;;5037067;28;20063;-60
2022/05/17 11:16:37;;;;;;;13.45;4.40;;;26.10;93.20;;;;;;5070275;28;20048;-56
2022/05/17 11:19:12;;;;;;;10.13;4.20;;;26.50;97.00;;;;;;5088354;28;20536;-58
2022/05/17 11:21:49;;;;;;;9.77;3.38;;;26.50;94.30;;;;;;5088203;28;20067;-57
2022/05/17 11:24:40;;;;;;;9.25;2.72;;;27.10;95.20;;;;;;5036941;28;20052;-48
2022/05/17 11:27:44;;;;;;;11.30;3.15;;;27.70;85.90;;;;;;5088417;28;20120;-52
2022/05/17 11:30:26;;;;;;;24.70;17.20;;;27.40;79.90;;;;;;5016885;28;20071;-55
2022/05/17 11:33:23;;;;;;;14.48;12.35;;;27.40;80.60;;;;;;5088595;28;20048;-52
2022/05/17 11:35:57;;;;;;;18.98;11.13;;;27.70;72.90;;;;;;5088551;28;20109;-51
2022/05/17 11:38:32;;;;;;;14.20;6.15;;;27.90;76.40;;;;;;5070428;28;20546;-51
2022/05/17 11:41:04;;;;;;;8.93;3.33;;;28.00;73.80;;;;;;5088386;28;20052;-48
2022/05/17 11:43:50;;;;;;;9.75;3.38;;;28.10;71.30;;;;;;5088714;28;20101;-50
2022/05/17 11:46:44;;;;;;;8.48;2.60;;;28.10;67.50;;;;;;5088948;28;20094;-48
2022/05/17 11:49:10;;;;;;;9.55;3.70;;;27.30;71.00;;;;;;5080909;28;20189;-56
2022/05/17 11:51:39;;;;;;;9.23;3.13;;;26.60;77.70;;;;;;5087947;28;20123;-58
2022/05/17 11:54:08;;;;;;;7.88;2.55;;;26.40;85.30;;;;;;5069950;28;20534;-53
2022/05/17 11:56:38;;;;;;;12.02;4.20;;;26.90;86.40;;;;;;5060835;28;20048;-57
2022/05/17 11:59:13;;;;;;;9.35;3.00;;;27.30;79.20;;;;;;5069238;28;20980;-57
2022/05/17 12:01:39;;;;;;;8.23;2.65;;;27.40;78.70;;;;;;5069218;28;20597;-57
2022/05/17 12:04:21;;;;;;;8.88;3.60;;;27.60;74.50;;;;;;5087270;28;20432;-53
2022/05/17 12:06:55;;;;;;;10.55;2.85;;;28.20;73.30;;;;;;5082763;28;20040;-53
2022/05/17 12:09:29;;;;;;;8.88;2.72;;;28.20;61.00;;;;;;5087546;28;20056;-49
2022/05/17 12:12:09;;;;;;;8.60;2.20;;;28.10;61.80;;;;;;5087939;28;20122;-58
2022/05/17 12:14:45;;;;;;;6.75;2.28;;;28.30;63.40;;;;;;5085124;28;20063;-59
2022/05/17 12:17:19;;;;;;;7.95;2.25;;;27.60;65.40;;;;;;5031125;28;20053;-59
2022/05/17 12:20:15;;;;;;;8.15;2.80;;;27.20;69.20;;;;;;5051837;28;20043;-47
2022/05/17 12:23:03;;;;;;;9.25;2.85;;;27.30;81.60;;;;;;5058171;28;20044;-47
2022/05/17 12:25:38;;;;;;;9.75;2.83;;;27.10;85.80;;;;;;5081308;28;20075;-47
2022/05/17 12:28:18;;;;;;;10.90;2.83;;;27.80;79.90;;;;;;5082264;28;20066;-59
2022/05/17 12:30:59;;;;;;;9.55;3.53;;;26.90;82.00;;;;;;5068570;28;20055;-60
2022/05/17 12:33:27;;;;;;;9.18;3.42;;;26.50;90.70;;;;;;5087241;28;20087;-59
2022/05/17 12:36:09;;;;;;;10.85;3.05;;;26.80;90.20;;;;;;5035649;28;20044;-59
2022/05/17 12:44:15;;;;;;;8.77;3.15;;;26.50;94.00;;;;;;5068907;28;20113;-46
2022/05/17 12:46:44;;;;;;;8.32;3.33;;;27.00;92.50;;;;;;5068710;28;20131;-47
2022/05/17 12:49:17;;;;;;;11.52;4.20;;;27.10;86.40;;;;;;5086856;28;20052;-46
2022/05/17 12:51:48;;;;;;;8.35;3.45;;;27.20;87.70;;;;;;5052419;28;20078;-48
2022/05/17 12:54:18;;;;;;;9.38;4.25;;;27.90;79.90;;;;;;5068946;28;20048;-47
2022/05/17 12:56:44;;;;;;;10.13;4.03;;;28.00;83.20;;;;;;5086786;28;20407;-47
2022/05/17 12:59:11;;;;;;;8.38;3.97;;;28.10;80.90;;;;;;5086699;28;20241;-59
2022/05/17 13:01:51;;;;;;;11.30;4.90;;;28.60;81.70;;;;;;5068231;28;20103;-50
2022/05/17 13:04:24;;;;;;;11.88;4.20;;;29.10;78.00;;;;;;5086607;28;20408;-58
2022/05/17 13:06:51;;;;;;;12.00;3.90;;;28.90;75.50;;;;;;5084962;28;20039;-59
2022/05/17 13:09:21;;;;;;;9.48;4.20;;;29.30;72.20;;;;;;5049552;28;20055;-59
2022/05/17 13:11:48;;;;;;;12.77;4.55;;;29.80;58.80;;;;;;5086035;28;20421;-46
2022/05/17 13:14:33;;;;;;;10.60;3.80;;;29.80;59.50;;;;;;5086373;28;20104;-50
2022/05/17 13:17:24;;;;;;;7.05;3.33;;;29.60;56.90;;;;;;5051676;28;20095;-48